Time;durP1;ratioP1;P1;durP2;ratioP2;P2;SDS_P1;SDS_P2;PMS_P1;PMS_P2;Temp;Humidity;BMP_temperature;BMP_pressure;BME280_temperature;BME280_humidity;BME280_pressure;Samples;Min_cycle;Max_cycle;Signal;HPM_P1;HPM_P2
2022/09/05 00:01:20;;;;;;;4.80;4.10;;;;;;;19.35;76.09;96083.09;4972539;28;20223;-82
2022/09/05 00:03:55;;;;;;;4.68;4.00;;;;;;;19.20;76.84;96079.06;4973254;28;20195;-84
2022/09/05 00:06:26;;;;;;;4.72;4.13;;;;;;;19.17;76.76;96084.72;4968352;28;20251;-81
2022/09/05 00:09:02;;;;;;;4.65;4.25;;;;;;;19.18;76.52;96083.69;4973221;28;20222;-82
2022/09/05 00:11:35;;;;;;;4.57;4.18;;;;;;;19.19;76.36;96084.50;4973598;28;20229;-83
2022/09/05 00:14:31;;;;;;;4.55;4.10;;;;;;;19.13;77.06;96080.94;4973544;28;20210;-82
2022/09/05 00:17:09;;;;;;;4.72;4.10;;;;;;;19.03;77.37;96085.06;4973281;28;20615;-82
2022/09/05 00:19:44;;;;;;;4.00;3.70;;;;;;;18.98;77.70;96076.06;4973060;28;20676;-83
2022/09/05 00:22:23;;;;;;;4.05;3.65;;;;;;;18.97;77.75;96073.69;4972815;28;20211;-81
2022/09/05 00:25:02;;;;;;;6.32;3.67;;;;;;;19.04;77.12;96078.84;4972408;28;20231;-80
2022/09/05 00:27:39;;;;;;;4.93;3.33;;;;;;;19.04;76.84;96078.84;4974790;28;20192;-82
2022/09/05 00:30:13;;;;;;;3.78;3.47;;;;;;;19.07;76.72;96079.19;4976281;28;20215;-82
2022/09/05 00:33:01;;;;;;;3.47;3.17;;;;;;;19.00;76.61;96077.69;4976526;28;20195;-82
2022/09/05 00:35:51;;;;;;;4.10;3.70;;;;;;;18.93;76.93;96072.50;4977152;28;20278;-82
2022/09/05 00:38:20;;;;;;;6.20;3.78;;;;;;;18.89;77.07;96079.97;4971613;28;20192;-82
2022/09/05 00:40:49;;;;;;;4.95;3.08;;;;;;;18.91;76.65;96084.97;4976087;28;20220;-82
2022/09/05 00:43:20;;;;;;;3.70;3.40;;;;;;;18.87;77.30;96083.81;4970326;28;20196;-82
2022/09/05 00:45:52;;;;;;;5.13;3.42;;;;;;;18.90;77.00;96078.16;4975949;28;20232;-82
2022/09/05 00:48:28;;;;;;;3.53;3.22;;;;;;;18.98;76.95;96072.66;4971378;28;20244;-83
2022/09/05 00:51:03;;;;;;;3.47;3.17;;;;;;;19.05;76.57;96070.00;4976115;28;20285;-83
2022/09/05 00:53:39;;;;;;;3.05;2.85;;;;;;;19.03;76.51;96075.44;4976794;28;20192;-82
2022/09/05 00:56:19;;;;;;;5.57;3.03;;;;;;;19.02;76.36;96073.84;4975718;28;20609;-82
2022/09/05 00:58:59;;;;;;;3.63;3.13;;;;;;;19.03;76.51;96069.41;4976003;28;20200;-82
2022/09/05 01:01:31;;;;;;;3.22;2.92;;;;;;;19.03;76.25;96072.03;4975966;28;20223;-82
2022/09/05 01:04:15;;;;;;;3.90;3.08;;;;;;;19.09;76.20;96071.13;4976240;28;20214;-82
2022/09/05 01:07:08;;;;;;;4.78;3.30;;;;;;;19.14;76.11;96066.06;4974957;28;20224;-82
2022/09/05 01:09:47;;;;;;;5.05;3.30;;;;;;;19.16;75.96;96066.66;4972550;28;20224;-83
2022/09/05 01:12:30;;;;;;;3.30;2.58;;;;;;;19.11;75.94;96063.88;4975500;28;20199;-82
2022/09/05 01:15:23;;;;;;;2.90;2.70;;;;;;;19.05;75.74;96070.78;4975290;28;20231;-82
2022/09/05 01:18:06;;;;;;;3.40;3.10;;;;;;;19.07;75.90;96073.97;4966160;28;20215;-82
2022/09/05 01:20:49;;;;;;;2.97;2.60;;;;;;;18.98;76.03;96075.28;4971569;28;20231;-82
2022/09/05 01:23:47;;;;;;;3.90;3.17;;;;;;;18.93;76.17;96081.13;4975854;28;20200;-83
2022/09/05 01:26:44;;;;;;;3.58;2.53;;;;;;;18.83;75.94;96085.28;4975948;28;20223;-82
2022/09/05 01:29:19;;;;;;;3.38;2.90;;;;;;;18.76;75.77;96077.50;4973992;28;20204;-82
2022/09/05 01:32:05;;;;;;;3.47;3.10;;;;;;;18.71;75.69;96074.72;4975520;28;20223;-81
2022/09/05 01:34:45;;;;;;;3.40;3.10;;;;;;;18.59;76.10;96073.84;4971594;28;20215;-80
2022/09/05 01:37:17;;;;;;;3.53;2.80;;;;;;;18.52;76.75;96079.09;4976309;28;20691;-82
2022/09/05 01:39:51;;;;;;;4.82;2.70;;;;;;;18.46;76.89;96076.56;4974776;28;20203;-82
2022/09/05 01:42:32;;;;;;;3.10;2.80;;;;;;;18.52;76.60;96086.91;4975349;28;20188;-83
2022/09/05 01:45:05;;;;;;;4.05;3.05;;;;;;;18.45;76.75;96075.75;4975179;28;20224;-82
2022/09/05 01:47:49;;;;;;;2.90;2.70;;;;;;;18.34;77.35;96080.84;4975406;28;20251;-82
2022/09/05 01:50:31;;;;;;;4.50;2.65;;;;;;;18.43;77.08;96082.19;4974196;28;20759;-82
2022/09/05 01:53:11;;;;;;;2.78;2.58;;;;;;;18.51;76.29;96084.50;4977264;28;20204;-82
2022/09/05 01:56:00;;;;;;;3.33;2.63;;;;;;;18.48;76.35;96080.50;4974691;28;20651;-82
2022/09/05 01:58:41;;;;;;;2.70;2.50;;;;;;;18.55;75.96;96085.69;4955292;28;20204;-82
2022/09/05 02:01:17;;;;;;;3.00;2.80;;;;;;;18.46;75.86;96093.00;4974791;28;20212;-82
2022/09/05 02:03:52;;;;;;;2.92;2.53;;;;;;;18.42;76.25;96091.00;4975557;28;20196;-82
2022/09/05 02:06:33;;;;;;;3.35;2.72;;;;;;;18.38;75.78;96088.03;4973372;28;20223;-82
2022/09/05 02:09:23;;;;;;;2.95;2.75;;;;;;;18.32;76.35;96091.47;4975128;28;20204;-82
2022/09/05 02:11:56;;;;;;;2.75;2.55;;;;;;;18.37;75.69;96090.84;4975088;28;20217;-82
2022/09/05 02:14:31;;;;;;;3.85;2.67;;;;;;;18.40;75.53;96090.44;4970118;28;20743;-82
2022/09/05 02:17:12;;;;;;;2.78;2.58;;;;;;;18.41;75.29;96089.41;4955254;28;20224;-84
2022/09/05 02:19:46;;;;;;;3.40;2.60;;;;;;;18.37;75.88;96089.03;4955912;28;20211;-80
2022/09/05 02:22:21;;;;;;;3.00;2.78;;;;;;;18.22;76.38;96091.97;4951233;29;20192;-82
2022/09/05 02:24:54;;;;;;;2.92;2.72;;;;;;;18.18;76.35;96096.00;4953295;28;20311;-83
2022/09/05 02:27:26;;;;;;;6.70;3.20;;;;;;;18.20;76.36;96095.78;4968577;28;20238;-80
2022/09/05 02:30:06;;;;;;;2.75;2.55;;;;;;;18.22;76.30;96099.78;4974788;28;20642;-80
2022/09/05 02:32:46;;;;;;;3.13;2.83;;;;;;;18.21;75.72;96092.97;4970056;28;20256;-80
2022/09/05 02:35:22;;;;;;;3.42;3.05;;;;;;;18.17;75.97;96096.19;4975135;28;20235;-82
2022/09/05 02:37:53;;;;;;;3.00;2.80;;;;;;;18.09;75.87;96091.25;4975007;28;20196;-80
2022/09/05 02:40:28;;;;;;;3.30;3.08;;;;;;;18.00;76.26;96088.09;4974091;28;20219;-82
2022/09/05 02:43:01;;;;;;;3.10;2.80;;;;;;;18.02;76.27;96093.91;4974759;28;20227;-81
2022/09/05 02:45:37;;;;;;;3.50;3.20;;;;;;;17.96;76.87;96094.72;4969512;28;20232;-81
2022/09/05 02:48:14;;;;;;;3.28;2.97;;;;;;;17.96;76.64;96094.72;4974209;28;20196;-80
2022/09/05 02:50:49;;;;;;;3.83;3.42;;;;;;;17.89;77.37;96091.38;4981981;28;20220;-82
2022/09/05 02:53:19;;;;;;;6.22;3.28;;;;;;;17.89;77.37;96092.19;4986376;28;20192;-83
2022/09/05 02:56:03;;;;;;;3.85;2.78;;;;;;;17.84;77.51;96099.03;4986272;28;20243;-83
2022/09/05 02:58:44;;;;;;;2.90;2.70;;;;;;;17.91;77.13;96097.16;4981974;28;20196;-82
2022/09/05 03:01:16;;;;;;;4.20;2.90;;;;;;;17.87;76.76;96093.41;4986236;28;20227;-82
2022/09/05 03:03:54;;;;;;;4.60;3.10;;;;;;;17.77;77.40;96090.44;4987355;28;20205;-83
2022/09/05 03:06:31;;;;;;;4.28;3.25;;;;;;;17.65;77.93;96085.09;4986592;28;20230;-81
2022/09/05 03:09:12;;;;;;;3.17;2.85;;;;;;;17.44;78.86;96095.78;4985943;28;20200;-83
2022/09/05 03:12:15;;;;;;;3.28;2.97;;;;;;;17.51;79.14;96105.13;4979333;28;20227;-83
2022/09/05 03:15:08;;;;;;;3.25;2.95;;;;;;;17.59;78.61;96098.91;4977592;28;20207;-83
2022/09/05 03:17:54;;;;;;;4.18;3.13;;;;;;;17.69;78.19;96108.94;4972482;28;20192;-80
2022/09/05 03:20:54;;;;;;;3.38;3.00;;;;;;;17.75;77.99;96100.25;4975966;28;20222;-82
2022/09/05 03:23:55;;;;;;;3.67;3.03;;;;;;;17.73;77.59;96097.84;4954199;28;20560;-84
2022/09/05 03:26:46;;;;;;;4.60;3.95;;;;;;;17.65;77.63;96102.53;4975669;28;20235;-82
2022/09/05 03:29:46;;;;;;;3.78;2.90;;;;;;;17.59;77.83;96099.72;4976744;28;20197;-83
2022/09/05 03:33:05;;;;;;;3.28;2.90;;;;;;;17.61;77.67;96102.09;4975342;28;20220;-82
2022/09/05 03:35:55;;;;;;;4.90;2.75;;;;;;;17.64;77.74;96106.94;4971393;28;20231;-80
2022/09/05 03:38:52;;;;;;;4.07;2.88;;;;;;;17.67;77.52;96103.91;4969561;28;20231;-83
2022/09/05 03:41:36;;;;;;;3.22;2.80;;;;;;;17.70;77.07;96107.91;4974763;28;20228;-83
2022/09/05 03:44:16;;;;;;;3.28;2.97;;;;;;;17.63;77.39;96100.09;4976164;28;20207;-82
2022/09/05 03:46:58;;;;;;;3.22;2.90;;;;;;;17.67;77.14;96097.91;4974740;28;20629;-83
2022/09/05 03:49:47;;;;;;;3.15;2.85;;;;;;;17.61;77.12;96096.91;4969743;28;20200;-83
2022/09/05 03:52:27;;;;;;;3.53;2.92;;;;;;;17.34;78.29;96093.59;4963816;28;20247;-83
2022/09/05 03:55:09;;;;;;;3.22;2.80;;;;;;;17.35;78.37;96095.19;4974269;28;20239;-83
2022/09/05 03:57:57;;;;;;;5.90;3.13;;;;;;;17.37;78.63;96093.19;4971587;28;20203;-82
2022/09/05 04:00:25;;;;;;;4.05;3.15;;;;;;;17.41;78.22;96096.97;4974983;28;20219;-81
2022/09/05 04:03:03;;;;;;;3.30;3.00;;;;;;;17.37;78.50;96100.19;4975336;28;20564;-81
2022/09/05 04:05:32;;;;;;;3.33;3.00;;;;;;;17.35;78.10;96091.78;4970062;28;20239;-83
2022/09/05 04:08:07;;;;;;;2.85;2.65;;;;;;;17.37;78.31;96089.78;4975942;28;20224;-82
2022/09/05 04:10:41;;;;;;;3.40;3.15;;;;;;;17.43;78.18;96087.16;4970883;28;20718;-81
2022/09/05 04:13:18;;;;;;;4.72;3.05;;;;;;;17.41;78.50;96091.78;4976407;28;20200;-83
2022/09/05 04:15:48;;;;;;;4.65;2.95;;;;;;;17.39;78.34;96087.78;4975860;28;20211;-81
2022/09/05 04:18:27;;;;;;;3.47;3.10;;;;;;;17.42;78.34;96085.56;4976195;28;20208;-79
2022/09/05 04:21:00;;;;;;;3.38;3.10;;;;;;;17.47;78.21;96090.97;4976220;28;20220;-82
2022/09/05 04:23:31;;;;;;;3.40;3.10;;;;;;;17.53;77.82;96087.50;4976469;28;20295;-80
2022/09/05 04:26:13;;;;;;;4.50;3.10;;;;;;;17.54;77.93;96091.72;4975242;28;20224;-80
2022/09/05 04:28:58;;;;;;;4.90;3.20;;;;;;;17.59;77.48;96091.91;4970468;28;20196;-81
2022/09/05 04:31:39;;;;;;;4.18;2.95;;;;;;;17.62;77.42;96090.69;4965187;28;20410;-82
2022/09/05 04:34:19;;;;;;;5.15;3.47;;;;;;;17.65;77.03;96095.50;4967453;28;20208;-83
2022/09/05 04:36:58;;;;;;;3.53;3.00;;;;;;;17.58;76.93;96086.88;4968771;28;20219;-81
2022/09/05 04:39:27;;;;;;;4.68;3.33;;;;;;;17.48;76.94;96092.56;4968380;28;20219;-81
2022/09/05 04:42:02;;;;;;;3.53;3.17;;;;;;;17.36;77.66;96091.59;4970519;28;20937;-82
2022/09/05 04:44:35;;;;;;;4.38;3.00;;;;;;;17.35;77.58;96095.19;4970090;28;20235;-82
2022/09/05 04:47:08;;;;;;;4.47;3.47;;;;;;;17.39;77.56;96098.19;4972502;28;20247;-79
2022/09/05 04:49:41;;;;;;;4.32;3.20;;;;;;;17.37;77.72;96100.19;4971596;28;20196;-82
2022/09/05 04:52:30;;;;;;;4.35;3.30;;;;;;;17.37;78.45;96103.59;4977749;28;20728;-82
2022/09/05 04:55:00;;;;;;;3.50;3.17;;;;;;;17.40;78.07;96105.78;4970405;28;20335;-80
2022/09/05 04:57:36;;;;;;;3.88;3.47;;;;;;;17.46;77.91;96107.59;4967920;28;20200;-81
2022/09/05 05:00:06;;;;;;;5.60;3.20;;;;;;;17.47;78.85;96101.38;4971999;28;20211;-82
2022/09/05 05:02:37;;;;;;;11.93;5.32;;;;;;;17.44;79.11;96108.78;4972005;28;20205;-82
2022/09/05 05:05:07;;;;;;;6.75;3.88;;;;;;;17.54;77.97;96116.94;4971715;28;20290;-80
2022/09/05 05:07:45;;;;;;;9.43;3.92;;;;;;;17.40;78.36;96116.22;4971615;28;20247;-82
2022/09/05 05:10:19;;;;;;;7.57;4.35;;;;;;;17.29;80.15;96111.66;4971558;28;20263;-82
2022/09/05 05:13:00;;;;;;;4.57;3.47;;;;;;;17.17;80.59;96111.47;4972447;28;20278;-82
2022/09/05 05:15:28;;;;;;;11.77;7.75;;;;;;;17.26;80.25;96119.88;4974925;28;20228;-82
2022/09/05 05:18:05;;;;;;;7.25;6.45;;;;;;;17.34;79.69;96124.81;4974508;28;20216;-82
2022/09/05 05:20:38;;;;;;;5.05;4.50;;;;;;;17.49;78.38;96130.59;4973267;28;20233;-80
2022/09/05 05:23:09;;;;;;;4.25;3.85;;;;;;;17.52;78.86;96132.78;4971797;28;20211;-82
2022/09/05 05:25:46;;;;;;;7.18;5.20;;;;;;;17.61;78.13;96134.16;4977153;28;20224;-82
2022/09/05 05:28:22;;;;;;;5.75;4.47;;;;;;;17.71;78.23;96136.34;4977664;28;20224;-82
2022/09/05 05:30:48;;;;;;;5.03;3.53;;;;;;;17.77;77.60;96135.50;4976716;28;20216;-82
2022/09/05 05:33:26;;;;;;;4.40;3.45;;;;;;;17.87;77.76;96142.91;4977174;28;20211;-82
2022/09/05 05:35:56;;;;;;;4.88;3.53;;;;;;;18.01;77.03;96154.03;4977503;28;20227;-80
2022/09/05 05:38:38;;;;;;;4.38;3.58;;;;;;;18.08;76.95;96150.41;4977093;28;20367;-83
2022/09/05 05:41:13;;;;;;;4.30;3.15;;;;;;;18.20;76.73;96145.31;4976415;28;20236;-85
2022/09/05 05:43:44;;;;;;;4.13;3.72;;;;;;;18.33;76.52;96141.81;4976200;28;20208;-84
2022/09/05 05:46:15;;;;;;;4.30;3.90;;;;;;;18.38;77.13;96152.41;4976371;28;20255;-85
2022/09/05 05:48:44;;;;;;;5.50;3.90;;;;;;;18.47;76.99;96149.31;4975870;28;20224;-84
2022/09/05 05:51:34;;;;;;;4.15;3.75;;;;;;;18.56;77.13;96150.69;4974507;28;20228;-84
2022/09/05 05:54:10;;;;;;;3.95;3.65;;;;;;;18.68;76.86;96152.63;4975656;28;20212;-84
2022/09/05 05:57:06;;;;;;;4.13;3.72;;;;;;;18.84;76.83;96149.50;4976681;28;20269;-83
2022/09/05 05:59:56;;;;;;;4.38;3.78;;;;;;;18.81;77.51;96148.09;4975861;28;20211;-82
2022/09/05 06:03:05;;;;;;;5.40;4.60;;;;;;;18.95;76.90;96151.38;4977516;28;20192;-82
2022/09/05 06:06:01;;;;;;;4.10;3.70;;;;;;;18.94;77.60;96150.59;4978395;28;20251;-82
2022/09/05 06:09:01;;;;;;;4.18;3.78;;;;;;;18.98;77.27;96156.19;4965178;28;20270;-81
2022/09/05 06:12:07;;;;;;;4.28;3.88;;;;;;;19.10;76.59;96151.84;4950313;28;20238;-80
2022/09/05 06:15:12;;;;;;;6.45;3.65;;;;;;;19.23;75.70;96156.97;4978657;28;20690;-82
2022/09/05 06:18:13;;;;;;;3.92;3.55;;;;;;;19.35;74.57;96157.03;4978181;28;20692;-80
2022/09/05 06:21:11;;;;;;;4.00;3.40;;;;;;;19.52;73.00;96168.53;4977848;28;20219;-80
2022/09/05 06:24:21;;;;;;;3.85;3.45;;;;;;;19.68;72.19;96159.28;4978476;28;20204;-82
2022/09/05 06:26:59;;;;;;;4.45;3.58;;;;;;;19.72;71.94;96160.44;4976367;28;20255;-82
2022/09/05 06:29:37;;;;;;;3.72;3.38;;;;;;;19.66;72.29;96154.28;4975892;28;20254;-82
2022/09/05 06:32:26;;;;;;;5.47;3.17;;;;;;;19.74;71.10;96157.63;4972796;28;20847;-81
2022/09/05 06:35:15;;;;;;;3.70;3.40;;;;;;;19.90;70.79;96151.78;4967159;28;20232;-82
2022/09/05 06:37:53;;;;;;;4.60;3.90;;;;;;;20.00;70.90;96155.50;4969678;28;20242;-83
2022/09/05 06:40:25;;;;;;;4.65;3.78;;;;;;;19.86;71.49;96161.06;4974945;28;20278;-83
2022/09/05 06:43:12;;;;;;;5.55;3.63;;;;;;;19.94;71.66;96153.75;4975539;28;20201;-82
2022/09/05 06:45:53;;;;;;;3.70;3.40;;;;;;;20.12;71.43;96149.50;4970129;28;20680;-82
2022/09/05 06:48:27;;;;;;;5.70;3.72;;;;;;;20.17;71.37;96144.41;4975984;28;20216;-81
2022/09/05 06:51:27;;;;;;;5.22;4.72;;;;;;;20.27;70.96;96153.28;4976983;28;20219;-81
2022/09/05 06:54:18;;;;;;;5.35;4.20;;;;;;;20.32;70.41;96156.03;4970971;28;20196;-84
2022/09/05 06:56:58;;;;;;;5.80;3.88;;;;;;;20.34;70.88;96154.00;4974094;28;20232;-81
2022/09/05 06:59:54;;;;;;;6.60;4.40;;;;;;;20.48;70.54;96154.63;4977774;28;20211;-82
2022/09/05 07:02:30;;;;;;;5.07;4.28;;;;;;;20.58;70.54;96159.31;4976455;28;20204;-82
2022/09/05 07:05:09;;;;;;;6.15;4.07;;;;;;;20.67;70.76;96158.75;4973762;28;20236;-81
2022/09/05 07:07:39;;;;;;;5.60;4.10;;;;;;;20.79;70.72;96153.53;4976160;28;20259;-82
2022/09/05 07:10:11;;;;;;;5.78;4.05;;;;;;;20.91;70.25;96156.16;4976947;28;20200;-83
2022/09/05 07:12:46;;;;;;;5.13;4.63;;;;;;;20.83;72.20;96161.72;4971318;28;20262;-82
2022/09/05 07:15:21;;;;;;;4.95;4.45;;;;;;;20.81;71.38;96161.94;4968981;28;20228;-81
2022/09/05 07:17:56;;;;;;;7.05;4.07;;;;;;;20.85;70.71;96162.31;4977073;28;20199;-81
2022/09/05 07:20:34;;;;;;;5.30;4.00;;;;;;;21.00;70.34;96168.69;4975895;28;20279;-83
2022/09/05 07:23:12;;;;;;;4.35;4.03;;;;;;;21.08;68.37;96172.00;4980164;28;20203;-82
2022/09/05 07:25:43;;;;;;;4.60;4.07;;;;;;;21.22;68.10;96168.16;4969525;28;20227;-79
2022/09/05 07:28:12;;;;;;;5.13;4.10;;;;;;;21.40;67.72;96168.00;4975293;28;20216;-82
2022/09/05 07:30:42;;;;;;;6.03;4.40;;;;;;;21.65;66.39;96173.78;4968481;28;20220;-82
2022/09/05 07:33:09;;;;;;;6.45;4.43;;;;;;;21.80;65.26;96169.88;4974299;28;20193;-83
2022/09/05 07:35:39;;;;;;;4.97;4.10;;;;;;;22.11;64.67;96177.34;4973969;28;20224;-83
2022/09/05 07:38:12;;;;;;;7.05;4.35;;;;;;;22.30;64.59;96180.56;4974205;28;20683;-83
2022/09/05 07:40:45;;;;;;;6.50;4.38;;;;;;;22.39;63.50;96177.31;4968912;28;20287;-83
2022/09/05 07:43:15;;;;;;;7.63;4.40;;;;;;;22.58;63.31;96177.91;4975264;28;20195;-82
2022/09/05 07:45:46;;;;;;;5.15;4.07;;;;;;;22.73;62.10;96182.59;4968015;28;20312;-82
2022/09/05 07:48:20;;;;;;;5.28;3.83;;;;;;;22.81;60.38;96176.19;4965659;28;20219;-82
2022/09/05 07:50:56;;;;;;;6.43;3.83;;;;;;;22.86;59.63;96179.72;4963723;28;20219;-82
2022/09/05 07:53:24;;;;;;;9.25;4.07;;;;;;;22.95;59.42;96180.09;4964237;28;20204;-82
2022/09/05 07:55:55;;;;;;;6.68;3.45;;;;;;;23.08;57.97;96183.19;4973450;28;20227;-82
2022/09/05 07:58:27;;;;;;;3.70;3.40;;;;;;;23.16;58.47;96189.06;4973382;28;20283;-82
2022/09/05 08:00:57;;;;;;;4.80;3.50;;;;;;;23.31;57.88;96182.19;4972722;28;20223;-83
2022/09/05 08:03:27;;;;;;;3.95;3.13;;;;;;;23.40;56.36;96180.75;4974406;28;20468;-82
2022/09/05 08:05:59;;;;;;;5.07;3.13;;;;;;;23.49;55.82;96183.75;4972697;28;20346;-82
2022/09/05 08:08:31;;;;;;;4.88;3.13;;;;;;;23.53;55.81;96186.72;4973004;28;20220;-83
2022/09/05 08:11:05;;;;;;;3.90;2.70;;;;;;;23.55;56.11;96192.53;4977842;28;20215;-82
2022/09/05 08:13:50;;;;;;;3.10;2.90;;;;;;;23.54;55.86;96183.06;4971448;28;20207;-82
2022/09/05 08:16:21;;;;;;;3.15;2.80;;;;;;;23.59;55.13;96180.50;4972383;28;20224;-82
2022/09/05 08:18:52;;;;;;;3.47;3.00;;;;;;;23.63;55.04;96177.16;4973212;28;20204;-82
2022/09/05 08:21:23;;;;;;;3.80;2.70;;;;;;;23.40;55.40;96174.69;4972537;28;20215;-82
2022/09/05 08:23:56;;;;;;;5.93;2.72;;;;;;;23.30;55.48;96174.53;4973717;28;20544;-82
2022/09/05 08:26:33;;;;;;;6.65;2.92;;;;;;;23.32;56.95;96170.66;4972699;28;20228;-83
2022/09/05 08:29:07;;;;;;;5.22;2.90;;;;;;;23.61;54.25;96168.69;4973757;28;20216;-82
2022/09/05 08:31:38;;;;;;;2.83;2.47;;;;;;;23.74;53.68;96170.16;4954761;28;20224;-82
2022/09/05 08:34:10;;;;;;;2.97;2.60;;;;;;;23.77;54.21;96159.97;4964142;28;20212;-83
2022/09/05 08:36:42;;;;;;;3.22;2.60;;;;;;;24.00;53.59;96166.78;4963347;28;20228;-82
2022/09/05 08:39:11;;;;;;;3.28;2.63;;;;;;;23.95;53.50;96158.84;4972912;28;20204;-82
2022/09/05 08:41:56;;;;;;;4.55;2.55;;;;;;;24.13;53.73;96165.59;4972899;28;20223;-83
2022/09/05 08:44:32;;;;;;;3.17;2.40;;;;;;;24.51;51.72;96163.88;4973687;28;20196;-82
2022/09/05 08:47:08;;;;;;;3.08;2.30;;;;;;;24.85;51.23;96167.84;4953831;28;20243;-83
2022/09/05 08:49:46;;;;;;;4.65;2.60;;;;;;;25.18;50.81;96152.84;4955722;28;20227;-83
2022/09/05 08:52:26;;;;;;;3.30;2.20;;;;;;;25.37;50.50;96156.66;4956741;28;20224;-82
2022/09/05 08:55:04;;;;;;;2.50;2.30;;;;;;;25.41;50.13;96147.16;4957329;28;20252;-82
2022/09/05 08:57:56;;;;;;;2.50;2.30;;;;;;;25.62;49.04;96151.50;4956351;28;20216;-82
2022/09/05 09:00:23;;;;;;;4.40;2.30;;;;;;;25.84;49.21;96146.06;4957100;28;20232;-83
2022/09/05 09:03:11;;;;;;;4.10;2.22;;;;;;;25.87;48.46;96150.03;4956908;28;20201;-83
2022/09/05 09:06:03;;;;;;;3.30;2.40;;;;;;;25.93;48.82;96151.63;4965226;28;20337;-83
2022/09/05 09:08:43;;;;;;;2.50;2.30;;;;;;;26.18;46.51;96154.31;4972676;28;20228;-82
2022/09/05 09:11:19;;;;;;;2.72;2.35;;;;;;;26.30;46.71;96149.63;4976519;28;20283;-83
2022/09/05 09:13:53;;;;;;;2.60;2.40;;;;;;;26.48;45.90;96145.69;4975892;28;20200;-82
2022/09/05 09:16:29;;;;;;;2.28;2.17;;;;;;;26.47;45.08;96136.97;4976008;28;20231;-83
2022/09/05 09:19:10;;;;;;;4.78;2.40;;;;;;;26.52;46.34;96140.69;4976551;28;20674;-83
2022/09/05 09:21:42;;;;;;;3.25;2.40;;;;;;;26.69;45.22;96133.28;4963493;28;20228;-83
2022/09/05 09:24:22;;;;;;;2.88;2.60;;;;;;;26.88;44.06;96130.91;4957842;28;20209;-83
2022/09/05 09:26:53;;;;;;;4.80;2.40;;;;;;;27.02;44.66;96131.97;4975246;28;20224;-82
2022/09/05 09:29:21;;;;;;;4.97;2.45;;;;;;;27.32;45.23;96128.47;4970988;28;20228;-83
2022/09/05 09:32:02;;;;;;;3.08;2.40;;;;;;;27.43;44.03;96128.16;4975158;28;20221;-83
2022/09/05 09:34:40;;;;;;;3.95;2.50;;;;;;;27.49;43.99;96126.31;4973301;28;20239;-84
2022/09/05 09:37:33;;;;;;;2.55;2.35;;;;;;;27.33;43.45;96128.19;4976169;28;20192;-83
2022/09/05 09:40:28;;;;;;;3.33;2.35;;;;;;;27.26;43.34;96126.91;4961704;28;20219;-82
2022/09/05 09:43:01;;;;;;;3.28;2.28;;;;;;;27.29;43.23;96131.66;4965501;28;20235;-84
2022/09/05 09:45:44;;;;;;;4.38;2.45;;;;;;;27.52;43.09;96128.38;4974562;28;20235;-83
2022/09/05 09:48:53;;;;;;;2.28;2.15;;;;;;;27.40;43.53;96125.25;4975450;28;20226;-83
2022/09/05 09:51:33;;;;;;;2.47;2.05;;;;;;;27.40;42.87;96128.69;4972821;28;20231;-83
2022/09/05 09:54:17;;;;;;;2.53;1.95;;;;;;;27.33;42.95;96122.09;4976806;28;20211;-82
2022/09/05 09:57:09;;;;;;;4.45;2.13;;;;;;;27.49;43.43;96128.94;4975379;28;20234;-83
2022/09/05 10:00:03;;;;;;;4.70;2.20;;;;;;;27.51;43.26;96129.47;4973252;28;20196;-83
2022/09/05 10:02:55;;;;;;;2.40;2.20;;;;;;;27.69;43.82;96128.09;4975139;28;20200;-83
2022/09/05 10:05:53;;;;;;;2.65;2.10;;;;;;;27.79;42.91;96112.16;4974048;28;20228;-83
2022/09/05 10:08:34;;;;;;;2.40;2.20;;;;;;;27.82;42.61;96117.72;4958184;28;20220;-83
2022/09/05 10:11:17;;;;;;;2.67;2.00;;;;;;;27.88;43.36;96115.84;4972509;28;20227;-83
2022/09/05 10:14:07;;;;;;;2.20;2.10;;;;;;;27.93;43.01;96109.72;4973588;28;20204;-83
2022/09/05 10:16:52;;;;;;;3.17;2.20;;;;;;;27.75;43.39;96108.47;4974179;28;20231;-83
2022/09/05 10:19:46;;;;;;;2.60;2.17;;;;;;;27.59;43.81;96106.97;4974670;28;20188;-83
2022/09/05 10:22:28;;;;;;;2.30;2.10;;;;;;;27.61;43.85;96112.78;4974857;28;20227;-83
2022/09/05 10:25:12;;;;;;;2.10;1.90;;;;;;;27.87;44.79;96102.88;4968300;28;20235;-83
2022/09/05 10:27:53;;;;;;;3.20;2.13;;;;;;;27.96;42.91;96109.97;4966542;28;20215;-83
2022/09/05 10:30:25;;;;;;;2.95;2.17;;;;;;;27.89;44.06;96103.41;4970414;28;20496;-83
2022/09/05 10:33:16;;;;;;;2.17;1.98;;;;;;;27.65;43.81;96111.19;4974600;28;20207;-83
2022/09/05 10:35:50;;;;;;;2.53;2.13;;;;;;;27.53;44.31;96106.16;4973426;28;20251;-83
2022/09/05 10:38:24;;;;;;;3.88;2.50;;;;;;;27.44;43.57;96091.91;4974572;28;20200;-83
2022/09/05 10:40:51;;;;;;;2.50;2.30;;;;;;;27.56;43.92;96100.31;4973346;28;20711;-83
2022/09/05 10:43:24;;;;;;;2.80;2.30;;;;;;;27.65;43.72;96090.81;4973950;28;20664;-83
2022/09/05 10:46:04;;;;;;;3.53;2.10;;;;;;;27.57;43.36;96091.38;4973535;28;20248;-84
2022/09/05 10:48:44;;;;;;;3.03;2.63;;;;;;;27.44;42.95;96087.44;4969954;28;20239;-83
2022/09/05 10:51:18;;;;;;;2.25;2.05;;;;;;;27.40;42.79;96091.66;4972770;28;20216;-83
2022/09/05 10:53:54;;;;;;;2.20;1.95;;;;;;;27.59;43.27;96091.88;4973983;28;20218;-83
2022/09/05 10:56:24;;;;;;;2.10;1.90;;;;;;;27.67;42.69;96078.09;4974014;28;20236;-84
2022/09/05 10:59:03;;;;;;;2.75;1.95;;;;;;;27.74;42.77;96086.50;4972603;28;20211;-83
2022/09/05 11:01:40;;;;;;;1.90;1.80;;;;;;;27.69;42.10;96078.63;4973314;28;20564;-84
2022/09/05 11:04:13;;;;;;;3.03;1.90;;;;;;;27.67;42.89;96072.81;4969966;28;20192;-84
2022/09/05 11:06:58;;;;;;;1.95;1.85;;;;;;;27.63;43.26;96069.13;4971391;28;20223;-83
2022/09/05 11:09:38;;;;;;;2.92;1.92;;;;;;;27.53;41.92;96069.13;4972813;28;20282;-84
2022/09/05 11:12:17;;;;;;;2.05;1.85;;;;;;;27.53;42.25;96063.81;4967902;28;20212;-83
2022/09/05 11:14:51;;;;;;;2.22;2.03;;;;;;;27.54;41.77;96065.41;4972213;28;20219;-84
2022/09/05 11:17:29;;;;;;;3.63;1.98;;;;;;;27.53;40.72;96069.91;4973564;28;20196;-84
2022/09/05 11:20:07;;;;;;;1.83;1.73;;;;;;;27.48;41.80;96075.25;4973344;28;20223;-84
2022/09/05 11:22:37;;;;;;;3.47;2.10;;;;;;;27.48;41.68;96071.81;4972689;28;20204;-83
2022/09/05 11:25:09;;;;;;;4.40;2.35;;;;;;;27.57;41.21;96064.06;4972653;28;20252;-83
2022/09/05 11:27:39;;;;;;;2.33;2.00;;;;;;;27.66;40.83;96065.94;4973170;28;20211;-83
2022/09/05 11:30:07;;;;;;;2.03;1.83;;;;;;;27.73;41.29;96066.41;4972459;28;20255;-83
2022/09/05 11:33:07;;;;;;;2.00;1.90;;;;;;;27.79;42.05;96062.66;4972095;28;20211;-83
2022/09/05 11:35:37;;;;;;;1.92;1.83;;;;;;;27.72;40.85;96064.03;4972861;28;20232;-83
2022/09/05 11:38:39;;;;;;;2.25;2.00;;;;;;;27.61;41.79;96065.94;4972907;28;20204;-84
2022/09/05 11:41:33;;;;;;;2.00;1.80;;;;;;;27.55;41.25;96055.63;4970047;28;20215;-84
2022/09/05 11:44:21;;;;;;;2.60;2.00;;;;;;;27.73;41.37;96058.47;4966176;28;20677;-84
2022/09/05 11:47:04;;;;;;;2.65;2.30;;;;;;;27.86;40.34;96059.72;4971736;28;20703;-83
2022/09/05 11:49:47;;;;;;;2.95;2.05;;;;;;;27.87;40.14;96060.53;4972454;28;20220;-84
2022/09/05 11:52:53;;;;;;;2.58;1.92;;;;;;;27.75;39.95;96050.25;4969563;28;20207;-84
2022/09/05 11:55:45;;;;;;;2.20;2.00;;;;;;;27.64;41.38;96046.88;4970550;28;20686;-84
2022/09/05 11:58:47;;;;;;;4.00;2.30;;;;;;;27.55;41.03;96047.69;4967703;28;20263;-84
2022/09/05 12:01:27;;;;;;;2.30;2.10;;;;;;;27.70;40.75;96047.66;4956468;28;20884;-84
2022/09/05 12:04:15;;;;;;;2.50;2.30;;;;;;;27.76;41.06;96047.34;4973104;28;20203;-84
2022/09/05 12:07:04;;;;;;;2.15;1.90;;;;;;;27.76;42.51;96046.53;4971843;28;20259;-84
2022/09/05 12:09:45;;;;;;;2.40;2.08;;;;;;;27.93;40.96;96040.88;4973685;28;20594;-84
2022/09/05 12:12:25;;;;;;;3.55;2.28;;;;;;;28.22;41.55;96046.28;4969099;28;20220;-83
2022/09/05 12:15:03;;;;;;;4.25;2.30;;;;;;;28.42;41.51;96033.66;4972295;28;20239;-84
2022/09/05 12:17:35;;;;;;;2.50;2.30;;;;;;;28.59;42.73;96037.75;4973649;28;20203;-84
2022/09/05 12:20:06;;;;;;;2.50;2.30;;;;;;;28.73;42.51;96028.06;4968081;28;20763;-85
2022/09/05 12:22:37;;;;;;;2.30;2.20;;;;;;;28.86;42.99;96030.09;4973367;28;20204;-84
2022/09/05 12:25:28;;;;;;;4.78;2.47;;;;;;;28.97;42.79;96034.19;4967992;28;20223;-84
2022/09/05 12:27:59;;;;;;;2.10;2.00;;;;;;;28.79;41.18;96025.09;4973798;28;21279;-83
2022/09/05 12:30:27;;;;;;;2.25;2.10;;;;;;;28.76;41.08;96028.28;4972976;28;20232;-83
2022/09/05 12:32:56;;;;;;;3.22;2.40;;;;;;;28.64;41.57;96033.19;4973045;28;20203;-83